createdAt,value
2019-01-25T00:00:26.129Z,-0.30
2019-01-25T00:03:30.972Z,-0.30
2019-01-25T00:06:34.212Z,-0.40
2019-01-25T00:09:37.129Z,-0.30
2019-01-25T00:12:40.443Z,-0.40
2019-01-25T00:15:43.372Z,-0.50
2019-01-25T00:18:46.274Z,-0.30
2019-01-25T00:21:49.975Z,-0.30
2019-01-25T00:24:53.266Z,-0.30
2019-01-25T00:27:56.189Z,-0.30
2019-01-25T00:30:59.109Z,-0.30
2019-01-25T00:34:02.439Z,-0.30
2019-01-25T00:37:05.359Z,-0.30
2019-01-25T00:40:11.400Z,-0.60
2019-01-25T00:43:15.832Z,-0.50
2019-01-25T00:46:19.106Z,-0.40
2019-01-25T00:49:22.048Z,-0.40
2019-01-25T00:52:24.962Z,-0.50
2019-01-25T00:55:27.891Z,-0.50
2019-01-25T00:58:30.867Z,-0.50
2019-01-25T01:01:34.874Z,-0.40
2019-01-25T01:04:38.670Z,-0.40
2019-01-25T01:07:41.828Z,-0.50
2019-01-25T01:10:44.759Z,-0.60
2019-01-25T01:13:47.672Z,-0.50
2019-01-25T01:16:50.624Z,-0.60
2019-01-25T01:19:54.027Z,-0.60
2019-01-25T01:22:57.412Z,-0.50
2019-01-25T01:26:00.318Z,-0.40
2019-01-25T01:29:03.250Z,-0.40
2019-01-25T01:32:06.162Z,-0.40
2019-01-25T01:35:09.270Z,-0.40
2019-01-25T01:38:12.598Z,-0.40
2019-01-25T01:41:15.541Z,-0.40
2019-01-25T01:44:18.445Z,-0.30
2019-01-25T01:47:21.374Z,-0.30
2019-01-25T01:50:24.302Z,-0.40
2019-01-25T01:53:28.751Z,-0.40
2019-01-25T01:56:32.038Z,-0.40
2019-01-25T01:59:35.950Z,-0.40
2019-01-25T02:02:38.868Z,-0.30
2019-01-25T02:05:41.834Z,-0.30
2019-01-25T02:08:44.754Z,-0.40
2019-01-25T02:11:47.690Z,-0.50
2019-01-25T02:14:50.993Z,-0.50
2019-01-25T02:17:54.786Z,-0.20
2019-01-25T02:20:58.184Z,-0.60
2019-01-25T02:24:01.440Z,-0.40
2019-01-25T02:27:04.735Z,-0.40
2019-01-25T02:30:12.216Z,-0.40
2019-01-25T02:33:15.499Z,-0.20
2019-01-25T02:36:18.435Z,-0.40
2019-01-25T02:39:21.355Z,-0.40
2019-01-25T02:42:24.578Z,-0.40
2019-01-25T02:45:27.790Z,-0.40
2019-01-25T02:48:30.717Z,-0.30
2019-01-25T02:51:33.625Z,-0.30
2019-01-25T02:54:36.546Z,-0.30
2019-01-25T02:57:39.544Z,-0.30
2019-01-25T03:00:42.454Z,-0.30
2019-01-25T03:03:45.702Z,-0.30
2019-01-25T03:06:48.615Z,-0.30
2019-01-25T03:09:51.531Z,-0.30
2019-01-25T03:12:54.427Z,-0.20
2019-01-25T03:15:57.673Z,0.00
2019-01-25T03:19:00.572Z,-0.30
2019-01-25T03:22:04.043Z,-0.40
2019-01-25T03:25:09.892Z,-0.30
2019-01-25T03:28:12.896Z,-0.20
2019-01-25T03:31:16.230Z,-0.30
2019-01-25T03:34:19.537Z,-0.20
2019-01-25T03:37:22.901Z,-0.20
2019-01-25T03:40:28.662Z,-0.20
2019-01-25T03:43:31.581Z,-0.20
2019-01-25T03:46:34.471Z,0.00
2019-01-25T03:49:38.779Z,-0.20
2019-01-25T03:52:41.676Z,-0.20
2019-01-25T03:55:44.593Z,-0.20
2019-01-25T03:58:47.507Z,-0.20
2019-01-25T04:01:50.432Z,-0.20
2019-01-25T04:04:55.760Z,-0.20
2019-01-25T04:07:58.783Z,-0.30
2019-01-25T04:11:03.817Z,-0.30
2019-01-25T04:14:06.530Z,-0.40
2019-01-25T04:17:09.741Z,-0.30
2019-01-25T04:20:14.345Z,-0.40
2019-01-25T04:23:17.264Z,-0.40
2019-01-25T04:26:20.239Z,-0.30
2019-01-25T04:29:23.451Z,-0.30
2019-01-25T04:32:26.411Z,-0.20
2019-01-25T04:35:30.005Z,-0.20
2019-01-25T04:38:33.748Z,-0.20
2019-01-25T04:41:36.752Z,-0.30
2019-01-25T04:44:39.754Z,-0.20
2019-01-25T04:47:42.928Z,-0.20
2019-01-25T04:50:45.869Z,-0.20
2019-01-25T04:53:48.786Z,-0.20
2019-01-25T04:56:51.775Z,-0.30
2019-01-25T04:59:54.774Z,-0.20
2019-01-25T05:02:58.842Z,-0.20
2019-01-25T05:06:02.039Z,-0.20
2019-01-25T05:09:08.244Z,-0.20
2019-01-25T05:12:11.148Z,-0.30
2019-01-25T05:15:14.164Z,-0.40
2019-01-25T05:18:17.299Z,-0.20
2019-01-25T05:21:27.033Z,-0.20
2019-01-25T05:24:30.409Z,-0.20
2019-01-25T05:27:33.675Z,0.10
2019-01-25T05:30:36.612Z,-0.20
2019-01-25T05:33:39.517Z,-0.20
2019-01-25T05:36:42.823Z,-0.10
2019-01-25T05:39:45.939Z,-0.10
2019-01-25T05:42:48.846Z,-0.30
2019-01-25T05:45:52.075Z,-0.30
2019-01-25T05:48:54.967Z,-0.30
2019-01-25T05:51:57.876Z,-0.30
2019-01-25T05:55:01.142Z,-0.30
2019-01-25T05:58:06.502Z,-0.40
2019-01-25T06:01:09.451Z,-0.40
2019-01-25T06:04:12.355Z,-0.40
2019-01-25T06:07:15.285Z,-0.30
2019-01-25T06:10:18.204Z,-0.30
2019-01-25T06:13:21.204Z,-0.30
2019-01-25T06:16:24.104Z,-0.40
2019-01-25T06:19:28.039Z,-0.30
2019-01-25T06:22:31.302Z,-0.30
2019-01-25T06:25:34.226Z,-0.40
2019-01-25T06:28:37.534Z,-0.30
2019-01-25T06:31:40.431Z,-0.40
2019-01-25T06:34:44.471Z,-0.30
2019-01-25T06:37:47.374Z,-0.40
2019-01-25T06:40:50.327Z,-0.40
2019-01-25T06:43:53.235Z,-0.40
2019-01-25T06:46:56.142Z,-0.50
2019-01-25T06:49:59.078Z,-0.40
2019-01-25T06:53:01.974Z,-0.40
2019-01-25T06:56:05.343Z,-0.40
2019-01-25T06:59:16.646Z,-0.40
2019-01-25T07:02:24.465Z,-0.30
2019-01-25T07:05:27.687Z,-0.20
2019-01-25T07:08:30.582Z,-0.30
2019-01-25T07:11:33.854Z,-0.40
2019-01-25T07:14:37.149Z,-0.30
2019-01-25T07:17:40.395Z,-0.30
2019-01-25T07:20:43.307Z,-0.10
2019-01-25T07:23:46.572Z,-0.30
2019-01-25T07:26:49.469Z,-0.30
2019-01-25T07:29:52.388Z,1.10
2019-01-25T07:32:56.121Z,2.60
2019-01-25T07:35:59.530Z,1.40
2019-01-25T07:39:21.489Z,0.80
2019-01-25T07:42:25.759Z,0.30
2019-01-25T07:45:28.698Z,0.20
2019-01-25T07:48:31.977Z,0.10
2019-01-25T07:51:35.232Z,0.00
2019-01-25T07:54:38.195Z,0.00
2019-01-25T07:57:41.159Z,0.00
2019-01-25T08:00:44.075Z,0.10
2019-01-25T08:03:47.059Z,0.10
2019-01-25T08:06:49.976Z,0.00
2019-01-25T08:09:52.892Z,0.00
2019-01-25T08:12:55.969Z,-0.10
2019-01-25T08:15:58.959Z,-0.10
2019-01-25T08:19:01.866Z,0.00
2019-01-25T08:22:04.795Z,0.00
2019-01-25T08:25:07.889Z,0.00
2019-01-25T08:28:11.016Z,0.00
2019-01-25T08:31:14.482Z,0.00
2019-01-25T08:34:17.548Z,0.10
2019-01-25T08:37:20.503Z,0.00
2019-01-25T08:40:24.076Z,0.10
2019-01-25T08:43:29.084Z,0.10
2019-01-25T08:46:32.395Z,0.10
2019-01-25T08:49:35.549Z,0.10
2019-01-25T08:52:38.533Z,0.10
2019-01-25T08:55:41.959Z,0.10
2019-01-25T08:58:45.339Z,0.20
2019-01-25T09:01:48.688Z,0.20
2019-01-25T09:04:52.298Z,0.30
2019-01-25T09:07:55.247Z,0.30
2019-01-25T09:10:58.156Z,0.30
2019-01-25T09:14:01.123Z,0.30
2019-01-25T09:17:04.896Z,0.30
2019-01-25T09:20:14.558Z,0.20
2019-01-25T09:23:16.986Z,0.20
2019-01-25T09:26:19.909Z,0.30
2019-01-25T09:29:22.831Z,0.30
2019-01-25T09:32:25.887Z,0.30
2019-01-25T09:35:29.859Z,0.20
2019-01-25T09:38:34.219Z,0.30
2019-01-25T09:41:37.654Z,0.50
2019-01-25T09:44:41.778Z,0.60
2019-01-25T09:47:44.684Z,0.50
2019-01-25T09:50:52.723Z,0.30
2019-01-25T09:53:53.571Z,0.40
2019-01-25T09:56:56.774Z,0.40
2019-01-25T09:59:59.696Z,0.40
2019-01-25T10:03:03.047Z,0.40
2019-01-25T10:06:05.980Z,0.50
2019-01-25T10:09:09.237Z,0.50
2019-01-25T10:12:12.159Z,0.60
2019-01-25T10:15:18.693Z,0.50
2019-01-25T10:18:24.803Z,0.50
2019-01-25T10:21:26.432Z,0.50
2019-01-25T10:24:29.644Z,0.60
2019-01-25T10:27:32.571Z,0.50
2019-01-25T10:30:35.505Z,0.50
2019-01-25T10:33:38.530Z,0.60
2019-01-25T10:36:42.757Z,0.70
2019-01-25T10:39:46.023Z,0.80
2019-01-25T10:42:53.450Z,0.70
2019-01-25T10:45:54.447Z,0.80
2019-01-25T10:48:57.647Z,0.90
2019-01-25T10:52:00.554Z,0.80
2019-01-25T10:55:05.381Z,0.90
2019-01-25T10:58:09.204Z,3.80
2019-01-25T11:01:12.544Z,5.20
2019-01-25T11:04:15.784Z,3.40
2019-01-25T11:07:18.690Z,2.40
2019-01-25T11:10:22.091Z,2.00
2019-01-25T11:13:25.020Z,1.80
2019-01-25T11:16:27.947Z,1.50
2019-01-25T11:19:30.871Z,1.30
2019-01-25T11:22:33.786Z,1.40
2019-01-25T11:25:38.775Z,1.40
2019-01-25T11:28:42.428Z,1.30
2019-01-25T11:31:45.709Z,1.20
2019-01-25T11:34:48.635Z,1.20
2019-01-25T11:37:52.462Z,1.20
2019-01-25T11:40:55.746Z,1.30
2019-01-25T11:43:58.679Z,1.40
2019-01-25T11:47:01.632Z,1.20
2019-01-25T11:50:06.859Z,1.20
2019-01-25T11:53:09.858Z,1.20
2019-01-25T11:56:15.017Z,1.30
2019-01-25T11:59:17.932Z,1.20
2019-01-25T12:02:21.110Z,1.90
2019-01-25T12:05:24.546Z,1.80
2019-01-25T12:08:27.675Z,1.50
2019-01-25T12:11:30.596Z,1.20
2019-01-25T12:14:33.799Z,1.30
2019-01-25T12:17:37.347Z,1.40
2019-01-25T12:20:40.263Z,1.30
2019-01-25T12:23:43.293Z,1.30
2019-01-25T12:26:46.603Z,1.20
2019-01-25T12:29:50.626Z,1.20
2019-01-25T12:32:53.534Z,1.20
2019-01-25T12:35:56.793Z,1.30
2019-01-25T12:39:00.075Z,1.30
2019-01-25T12:42:03.491Z,1.30
2019-01-25T12:45:11.022Z,1.30
2019-01-25T12:48:15.100Z,1.30
2019-01-25T12:51:27.208Z,1.50
2019-01-25T12:54:30.559Z,1.50
2019-01-25T12:57:33.467Z,1.40
2019-01-25T13:00:39.445Z,1.30
2019-01-25T13:03:42.392Z,1.40
2019-01-25T13:06:46.559Z,1.40
2019-01-25T13:09:50.139Z,1.50
2019-01-25T13:12:53.054Z,1.50
2019-01-25T13:15:56.298Z,1.70
2019-01-25T13:18:59.251Z,1.60
2019-01-25T13:22:02.526Z,1.60
2019-01-25T13:25:06.757Z,1.70
2019-01-25T13:28:09.669Z,1.70
2019-01-25T13:31:12.958Z,1.70
2019-01-25T13:34:15.981Z,1.60
2019-01-25T13:37:19.223Z,1.70
2019-01-25T13:40:23.331Z,1.60
2019-01-25T13:43:26.812Z,1.60
2019-01-25T13:46:29.731Z,1.70
2019-01-25T13:49:33.083Z,1.70
2019-01-25T13:52:36.648Z,1.70
2019-01-25T13:55:39.945Z,1.70
2019-01-25T13:58:42.851Z,1.80
2019-01-25T14:01:45.787Z,1.70
2019-01-25T14:04:49.098Z,1.80
2019-01-25T14:07:52.492Z,1.80
2019-01-25T14:10:56.770Z,1.80
2019-01-25T14:13:59.699Z,1.90
2019-01-25T14:17:02.610Z,1.90
2019-01-25T14:20:09.311Z,2.00
2019-01-25T14:23:12.588Z,2.00
2019-01-25T14:26:15.830Z,2.00
2019-01-25T14:29:19.522Z,2.10
2019-01-25T14:32:23.204Z,2.00
2019-01-25T14:35:26.168Z,2.00
2019-01-25T14:38:29.818Z,2.00
2019-01-25T14:41:33.107Z,2.00
2019-01-25T14:44:36.156Z,2.10
2019-01-25T14:47:39.097Z,2.10
2019-01-25T14:50:43.472Z,2.20
2019-01-25T14:53:50.807Z,2.30
2019-01-25T14:56:51.552Z,2.30
2019-01-25T14:59:54.808Z,2.20
2019-01-25T15:02:57.743Z,2.10
2019-01-25T15:06:01.026Z,2.10
2019-01-25T15:09:08.711Z,2.10
2019-01-25T15:12:11.641Z,2.10
2019-01-25T15:15:14.674Z,2.10
2019-01-25T15:18:17.581Z,2.10
2019-01-25T15:21:21.889Z,2.10
2019-01-25T15:24:24.822Z,2.10
2019-01-25T15:27:27.731Z,2.10
2019-01-25T15:30:31.855Z,2.10
2019-01-25T15:33:35.179Z,2.20
2019-01-25T15:36:38.084Z,2.60
2019-01-25T15:39:41.376Z,2.90
2019-01-25T15:42:44.308Z,2.60
2019-01-25T15:45:47.638Z,2.30
2019-01-25T15:48:51.640Z,2.30
2019-01-25T15:51:54.991Z,2.20
2019-01-25T15:54:57.888Z,2.20
2019-01-25T15:58:00.918Z,2.20
2019-01-25T16:01:04.141Z,2.10
2019-01-25T16:04:07.439Z,2.20
2019-01-25T16:07:10.332Z,2.20
2019-01-25T16:10:16.126Z,2.20
2019-01-25T16:13:19.067Z,2.20
2019-01-25T16:16:22.032Z,2.10
2019-01-25T16:19:25.034Z,2.20
2019-01-25T16:22:27.966Z,2.20
2019-01-25T16:25:33.544Z,2.20
2019-01-25T16:28:36.780Z,2.20
2019-01-25T16:31:40.160Z,2.10
2019-01-25T16:34:43.347Z,2.10
2019-01-25T16:37:46.292Z,2.20
2019-01-25T16:40:49.529Z,2.10
2019-01-25T16:43:52.449Z,2.10
2019-01-25T16:46:55.706Z,2.20
2019-01-25T16:49:58.940Z,2.10
2019-01-25T16:53:01.896Z,2.00
2019-01-25T16:56:05.053Z,2.00
2019-01-25T16:59:07.975Z,2.10
2019-01-25T17:02:10.912Z,2.10
2019-01-25T17:05:14.355Z,2.10
2019-01-25T17:08:17.387Z,2.00
2019-01-25T17:11:20.293Z,2.00
2019-01-25T17:14:23.233Z,2.00
2019-01-25T17:17:26.165Z,2.00
2019-01-25T17:20:29.382Z,2.00
2019-01-25T17:23:32.350Z,2.00
2019-01-25T17:26:35.599Z,2.00
2019-01-25T17:29:38.877Z,1.90
2019-01-25T17:32:41.990Z,1.90
2019-01-25T17:35:45.360Z,1.90
2019-01-25T17:38:48.279Z,2.00
2019-01-25T17:41:51.196Z,1.90
2019-01-25T17:44:54.944Z,1.90
2019-01-25T17:47:57.924Z,1.90
2019-01-25T17:51:01.343Z,2.00
2019-01-25T17:54:04.923Z,1.90
2019-01-25T17:57:07.947Z,1.90
2019-01-25T18:00:15.892Z,2.00
2019-01-25T18:03:19.007Z,2.00
2019-01-25T18:06:23.099Z,2.00
2019-01-25T18:09:26.007Z,2.10
2019-01-25T18:12:28.950Z,2.10
2019-01-25T18:15:32.533Z,2.00
2019-01-25T18:18:35.553Z,2.00
2019-01-25T18:21:38.466Z,2.00
2019-01-25T18:24:41.939Z,2.00
2019-01-25T18:27:50.188Z,2.10
2019-01-25T18:31:02.042Z,2.10
2019-01-25T18:34:06.619Z,2.10
2019-01-25T18:37:09.549Z,2.00
2019-01-25T18:40:12.492Z,2.10
2019-01-25T18:43:17.552Z,2.10
2019-01-25T18:46:20.689Z,2.10
2019-01-25T18:49:23.650Z,2.20
2019-01-25T18:52:26.769Z,2.20
2019-01-25T18:55:30.063Z,2.20
2019-01-25T18:58:32.999Z,2.20
2019-01-25T19:01:35.981Z,2.30
2019-01-25T19:04:38.888Z,2.30
2019-01-25T19:07:41.823Z,2.30
2019-01-25T19:10:44.763Z,2.40
2019-01-25T19:13:47.688Z,2.30
2019-01-25T19:16:51.765Z,2.40
2019-01-25T19:19:55.244Z,2.40
2019-01-25T19:22:58.251Z,2.40
2019-01-25T19:26:01.960Z,2.30
2019-01-25T19:29:05.448Z,2.50
2019-01-25T19:32:08.364Z,2.40
2019-01-25T19:35:11.418Z,2.30
2019-01-25T19:38:18.149Z,2.30
2019-01-25T19:41:21.176Z,2.30
2019-01-25T19:44:24.619Z,2.40
2019-01-25T19:47:27.662Z,6.30
2019-01-25T19:50:31.129Z,11.90
2019-01-25T19:53:34.040Z,7.60
2019-01-25T19:56:37.006Z,4.90
2019-01-25T19:59:41.026Z,3.60
2019-01-25T20:02:44.446Z,3.10
2019-01-25T20:05:47.376Z,2.80
2019-01-25T20:08:50.305Z,2.70
2019-01-25T20:11:53.348Z,2.70
2019-01-25T20:14:56.368Z,2.60
2019-01-25T20:17:59.344Z,2.60
2019-01-25T20:21:02.433Z,2.60
2019-01-25T20:24:05.463Z,2.60
2019-01-25T20:27:08.409Z,2.70
2019-01-25T20:30:21.782Z,2.60
2019-01-25T20:33:24.790Z,2.70
2019-01-25T20:36:27.872Z,2.60
2019-01-25T20:39:30.895Z,2.50
2019-01-25T20:42:33.842Z,2.60
2019-01-25T20:45:38.500Z,2.70
2019-01-25T20:48:41.743Z,2.70
2019-01-25T20:51:44.663Z,2.80
2019-01-25T20:54:47.947Z,2.70
2019-01-25T20:57:51.611Z,2.80
2019-01-25T21:00:54.614Z,2.70
2019-01-25T21:03:57.655Z,2.70
2019-01-25T21:07:00.614Z,2.70
2019-01-25T21:10:06.747Z,2.80
2019-01-25T21:13:09.672Z,2.70
2019-01-25T21:16:12.604Z,2.70
2019-01-25T21:19:15.517Z,2.70
2019-01-25T21:22:18.442Z,2.70
2019-01-25T21:25:21.355Z,2.70
2019-01-25T21:28:24.318Z,2.70
2019-01-25T21:31:27.239Z,2.80
2019-01-25T21:34:30.167Z,2.80
2019-01-25T21:37:33.094Z,2.70
2019-01-25T21:40:36.337Z,2.80
2019-01-25T21:43:39.291Z,2.80
2019-01-25T21:46:42.207Z,2.70
2019-01-25T21:49:45.288Z,3.00
2019-01-25T21:52:48.199Z,2.90
2019-01-25T21:55:51.337Z,2.90
2019-01-25T21:58:54.382Z,2.90
2019-01-25T22:01:57.648Z,2.90
2019-01-25T22:05:00.647Z,2.80
2019-01-25T22:08:05.605Z,2.90
2019-01-25T22:11:08.664Z,2.90
2019-01-25T22:14:11.674Z,2.90
2019-01-25T22:17:15.032Z,2.90
2019-01-25T22:20:21.348Z,2.90
2019-01-25T22:23:24.251Z,3.00
2019-01-25T22:26:27.174Z,3.00
2019-01-25T22:29:30.405Z,3.00
2019-01-25T22:32:33.382Z,3.00
2019-01-25T22:35:36.586Z,3.10
2019-01-25T22:38:39.951Z,3.10
2019-01-25T22:41:42.875Z,3.10
2019-01-25T22:44:46.134Z,3.10
2019-01-25T22:47:49.428Z,3.10
2019-01-25T22:50:52.733Z,3.10
2019-01-25T22:53:56.329Z,3.20
2019-01-25T22:56:59.836Z,3.10
2019-01-25T23:00:09.301Z,3.30
2019-01-25T23:03:14.150Z,3.20
2019-01-25T23:06:55.812Z,3.20
2019-01-25T23:10:03.436Z,3.20
2019-01-25T23:13:07.437Z,3.20
2019-01-25T23:16:10.355Z,3.30
2019-01-25T23:19:13.386Z,3.40
2019-01-25T23:22:16.595Z,3.40
2019-01-25T23:25:19.539Z,3.50
2019-01-25T23:28:23.199Z,3.50
2019-01-25T23:31:26.142Z,3.50
2019-01-25T23:34:29.059Z,3.60
2019-01-25T23:37:32.057Z,3.60
2019-01-25T23:40:34.988Z,3.70
2019-01-25T23:43:38.242Z,3.70
2019-01-25T23:46:41.179Z,3.70
2019-01-25T23:49:44.786Z,3.70
2019-01-25T23:52:48.025Z,3.60
2019-01-25T23:55:51.366Z,3.70
2019-01-25T23:58:54.271Z,3.60
